首页
METAR-TAF:

METAR-TAF

机场 :

聖薩爾瓦多, 萨尔瓦多

纬度: 13-42N, 经度: 089-07W, 海拔: 616米

当前天气观测

该预报发布于12小时和37分钟前的21:50 UTC
风速12节,风向南转西南
温度 29°C
湿度 58%
气压 1011 hPa
能见度10公里或以上
少量云层高于3300英尺

METAR: MSSS 012150Z 20012KT 9999 FEW033 29/20 Q1011 A2986 RMK HZ

时间: 04:27 (10:27 UTC)

预报

该预报发布于7小时和2分钟前的03:25 UTC
预报有效从02日的 06点(UTC)到 03日的 06点(UTC)
风速5节,风向
能见度10公里或以上
散云层高于2000英尺
从 02日的 1800点(UTC)
风速10节,风向
能见度10公里或以上
多云层高于3300英尺
少量云层高于3700英尺, 积雨云.

TAF: MSSS 020325Z 0206/0306 35005KT 9999 SCT020 TX31/0218Z TN21/0212Z FM021800 18010KT 9999 BKN033 FEW037CB

超过4000个机场的气象观测和天气预报(METAR&TAF报告)。

可查询的气象台以黄色和红色小点在地图上表示。

将鼠标移到小点上方,可查看气象台名称。

然后点击查看天气观测和预报。

如需切换地图:点击带黑十字的绿色按钮放大地图;点击带横线的绿色按钮缩小地图;或者点击绿色箭头查看邻近地区的地图。


METAR-TAF: